Terminal Aerodrome Forecast
Issued by NWS

Home | Current Version | Previous Version | Text Only | Print | Product List | Glossary On
Versions: 1 2 3 4 5 6 7 8 9 10 11 12 13 14 15 16 17 18
000
FTUS44 KTSA 071616 AAC
TAFBVO
TAF AMD
KBVO 071616Z 0716/0812 02012G16KT 3SM BR BKN007 OVC013
      TEMPO 0716/0717 6SM BR SCT007 BKN013
     FM071800 03008KT P6SM VCSH OVC015
     FM080200 06005KT 3SM -TSRA BKN025CB=

USA.gov is the U.S. government's official web portal to all federal, state and local government web resources and services.